Time;durP1;ratioP1;P1;durP2;ratioP2;P2;SDS_P1;SDS_P2;PMS_P1;PMS_P2;Temp;Humidity;BMP_temperature;BMP_pressure;BME280_temperature;BME280_humidity;BME280_pressure;Samples;Min_cycle;Max_cycle;Signal;HPM_P1;HPM_P2
2021/06/12 00:01:01;;;;;;;3.17;2.88;;;20.6;99.9;;;;;;;;;
2021/06/12 00:02:02;;;;;;;4.07;3.4;;;20.6;99.9;;;;;;;;;
2021/06/12 00:03:02;;;;;;;3.83;3.35;;;20.6;99.9;;;;;;;;;
2021/06/12 00:03:16;;;;;;;3.97;3.3;;;20.6;99.9;;;;;;;;;
2021/06/12 00:04:02;;;;;;;3.97;3.3;;;20.6;99.9;;;;;;;;;
2021/06/12 00:04:13;;;;;;;5.95;3.72;;;20.6;99.9;;;;;;;;;
2021/06/12 00:05:01;;;;;;;5.95;3.72;;;20.6;99.9;;;;;;;;;
2021/06/12 00:05:14;;;;;;;4.3;3.63;;;20.6;99.9;;;;;;;;;
2021/06/12 00:05:29;;;;;;;4.3;3.63;;;20.6;99.9;;;;;;;;;
2021/06/12 00:06:01;;;;;;;4.3;3.63;;;20.6;99.9;;;;;;;;;
2021/06/12 00:06:15;;;;;;;3.95;3.33;;;20.6;99.9;;;;;;;;;
2021/06/12 00:06:26;;;;;;;3.95;3.33;;;20.6;99.9;;;;;;;;;
2021/06/12 00:07:01;;;;;;;3.95;3.33;;;20.6;99.9;;;;;;;;;
2021/06/12 00:07:17;;;;;;;4.68;3.3;;;20.6;99.9;;;;;;;;;
2021/06/12 00:07:27;;;;;;;4.68;3.3;;;20.6;99.9;;;;;;;;;
2021/06/12 00:07:43;;;;;;;4.68;3.3;;;20.6;99.9;;;;;;;;;
2021/06/12 00:08:01;;;;;;;4.68;3.3;;;20.6;99.9;;;;;;;;;
2021/06/12 00:08:13;;;;;;;5.3;3.13;;;20.5;99.9;;;;;;;;;
2021/06/12 00:08:29;;;;;;;5.3;3.13;;;20.5;99.9;;;;;;;;;
2021/06/12 00:08:39;;;;;;;5.3;3.13;;;20.5;99.9;;;;;;;;;
2021/06/12 00:09:01;;;;;;;5.3;3.13;;;20.5;99.9;;;;;;;;;
2021/06/12 00:09:15;;;;;;;3.75;3.38;;;20.5;99.9;;;;;;;;;
2021/06/12 00:09:30;;;;;;;3.75;3.38;;;20.5;99.9;;;;;;;;;
2021/06/12 00:09:40;;;;;;;3.75;3.38;;;20.5;99.9;;;;;;;;;
2021/06/12 00:09:56;;;;;;;3.75;3.38;;;20.5;99.9;;;;;;;;;
2021/06/12 00:10:01;;;;;;;3.75;3.38;;;20.5;99.9;;;;;;;;;
2021/06/12 00:10:16;;;;;;;5.53;3.45;;;20.5;99.9;;;;;;;;;
2021/06/12 00:10:26;;;;;;;5.53;3.45;;;20.5;99.9;;;;;;;;;
2021/06/12 00:10:42;;;;;;;5.53;3.45;;;20.5;99.9;;;;;;;;;
2021/06/12 00:10:52;;;;;;;5.53;3.45;;;20.5;99.9;;;;;;;;;
2021/06/12 00:11:02;;;;;;;5.53;3.45;;;20.5;99.9;;;;;;;;;
2021/06/12 00:11:13;;;;;;;4.82;3.67;;;20.5;99.9;;;;;;;;;
2021/06/12 00:11:28;;;;;;;4.82;3.67;;;20.5;99.9;;;;;;;;;
2021/06/12 00:11:43;;;;;;;4.82;3.67;;;20.5;99.9;;;;;;;;;
2021/06/12 00:11:53;;;;;;;4.82;3.67;;;20.5;99.9;;;;;;;;;
2021/06/12 00:12:02;;;;;;;4.82;3.67;;;20.5;99.9;;;;;;;;;
2021/06/12 00:12:09;;;;;;;4.82;3.67;;;20.5;99.9;;;;;;;;;
2021/06/12 00:12:14;;;;;;;4.95;3.2;;;20.5;99.9;;;;;;;;;
2021/06/12 00:12:29;;;;;;;4.95;3.2;;;20.5;99.9;;;;;;;;;
2021/06/12 00:12:41;;;;;;;4.95;3.2;;;20.5;99.9;;;;;;;;;
2021/06/12 00:12:55;;;;;;;4.95;3.2;;;20.5;99.9;;;;;;;;;
2021/06/12 00:13:02;;;;;;;4.95;3.2;;;20.5;99.9;;;;;;;;;
2021/06/12 00:13:05;;;;;;;4.95;3.2;;;20.5;99.9;;;;;;;;;
2021/06/12 00:13:15;;;;;;;4.05;2.9;;;20.4;99.9;;;;;;;;;
2021/06/12 00:13:26;;;;;;;4.05;2.9;;;20.4;99.9;;;;;;;;;
2021/06/12 00:13:41;;;;;;;4.05;2.9;;;20.4;99.9;;;;;;;;;
2021/06/12 00:13:56;;;;;;;4.05;2.9;;;20.4;99.9;;;;;;;;;
2021/06/12 00:14:02;;;;;;;4.05;2.9;;;20.4;99.9;;;;;;;;;
2021/06/12 00:14:07;;;;;;;4.05;2.9;;;20.4;99.9;;;;;;;;;
2021/06/12 00:14:17;;;;;;;4.47;3.1;;;20.5;99.9;;;;;;;;;
2021/06/12 00:14:27;;;;;;;4.47;3.1;;;20.5;99.9;;;;;;;;;
2021/06/12 00:14:42;;;;;;;4.47;3.1;;;20.5;99.9;;;;;;;;;
2021/06/12 00:14:53;;;;;;;4.47;3.1;;;20.5;99.9;;;;;;;;;
2021/06/12 00:15:03;;;;;;;4.47;3.1;;;20.5;99.9;;;;;;;;;
2021/06/12 00:15:08;;;;;;;4.47;3.1;;;20.5;99.9;;;;;;;;;
2021/06/12 00:15:13;;;;;;;5.22;3.97;;;20.5;99.9;;;;;;;;;
2021/06/12 00:15:29;;;;;;;5.22;3.97;;;20.5;99.9;;;;;;;;;
2021/06/12 00:15:39;;;;;;;5.22;3.97;;;20.5;99.9;;;;;;;;;
2021/06/12 00:15:54;;;;;;;5.22;3.97;;;20.5;99.9;;;;;;;;;
2021/06/12 00:16:02;;;;;;;5.22;3.97;;;20.5;99.9;;;;;;;;;
2021/06/12 00:16:09;;;;;;;5.22;3.97;;;20.5;99.9;;;;;;;;;
2021/06/12 00:16:15;;;;;;;4.05;3.3;;;20.4;99.9;;;;;;;;;
2021/06/12 00:16:30;;;;;;;4.05;3.3;;;20.4;99.9;;;;;;;;;
2021/06/12 00:16:40;;;;;;;4.05;3.3;;;20.4;99.9;;;;;;;;;
2021/06/12 00:16:55;;;;;;;4.05;3.3;;;20.4;99.9;;;;;;;;;
2021/06/12 00:17:02;;;;;;;4.05;3.3;;;20.4;99.9;;;;;;;;;
2021/06/12 00:17:06;;;;;;;4.05;3.3;;;20.4;99.9;;;;;;;;;
2021/06/12 00:17:16;;;;;;;3.9;3.42;;;20.5;99.9;;;;;;;;;
2021/06/12 00:17:26;;;;;;;3.9;3.42;;;20.5;99.9;;;;;;;;;
2021/06/12 00:17:42;;;;;;;3.9;3.42;;;20.5;99.9;;;;;;;;;
2021/06/12 00:17:52;;;;;;;3.9;3.42;;;20.5;99.9;;;;;;;;;
2021/06/12 00:18:02;;;;;;;3.9;3.42;;;20.5;99.9;;;;;;;;;
2021/06/12 00:18:08;;;;;;;3.9;3.42;;;20.5;99.9;;;;;;;;;
2021/06/12 00:18:12;;;;;;;3.9;3.42;;;20.5;99.9;;;;;;;;;
2021/06/12 00:18:28;;;;;;;3.4;3.1;;;20.3;99.9;;;;;;;;;
2021/06/12 00:18:43;;;;;;;3.4;3.1;;;20.3;99.9;;;;;;;;;
2021/06/12 00:18:53;;;;;;;3.4;3.1;;;20.3;99.9;;;;;;;;;
2021/06/12 00:19:02;;;;;;;3.4;3.1;;;20.3;99.9;;;;;;;;;
2021/06/12 00:19:09;;;;;;;3.4;3.1;;;20.3;99.9;;;;;;;;;
2021/06/12 00:19:14;;;;;;;4;3.58;;;20.4;99.9;;;;;;;;;
2021/06/12 00:19:29;;;;;;;4;3.58;;;20.4;99.9;;;;;;;;;
2021/06/12 00:19:39;;;;;;;4;3.58;;;20.4;99.9;;;;;;;;;
2021/06/12 00:19:55;;;;;;;4;3.58;;;20.4;99.9;;;;;;;;;
2021/06/12 00:20:01;;;;;;;4;3.58;;;20.4;99.9;;;;;;;;;
2021/06/12 00:20:05;;;;;;;4;3.58;;;20.4;99.9;;;;;;;;;
2021/06/12 00:20:15;;;;;;;3.9;3.28;;;20.4;99.9;;;;;;;;;
2021/06/12 00:20:25;;;;;;;3.9;3.28;;;20.4;99.9;;;;;;;;;
2021/06/12 00:20:41;;;;;;;3.9;3.28;;;20.4;99.9;;;;;;;;;
2021/06/12 00:20:56;;;;;;;3.9;3.28;;;20.4;99.9;;;;;;;;;
2021/06/12 00:21:02;;;;;;;3.9;3.28;;;20.4;99.9;;;;;;;;;
2021/06/12 00:21:06;;;;;;;3.9;3.28;;;20.4;99.9;;;;;;;;;
2021/06/12 00:21:17;;;;;;;4.55;3.13;;;20.4;99.9;;;;;;;;;
2021/06/12 00:21:27;;;;;;;4.55;3.13;;;20.4;99.9;;;;;;;;;
2021/06/12 00:21:42;;;;;;;4.55;3.13;;;20.4;99.9;;;;;;;;;
2021/06/12 00:21:52;;;;;;;4.55;3.13;;;20.4;99.9;;;;;;;;;
2021/06/12 00:22:01;;;;;;;4.55;3.13;;;20.4;99.9;;;;;;;;;
2021/06/12 00:22:08;;;;;;;4.55;3.13;;;20.4;99.9;;;;;;;;;
2021/06/12 00:22:18;;;;;;;4;3.6;;;20.5;99.9;;;;;;;;;
2021/06/12 00:22:28;;;;;;;4;3.6;;;20.5;99.9;;;;;;;;;
2021/06/12 00:22:39;;;;;;;4;3.6;;;20.5;99.9;;;;;;;;;
2021/06/12 00:22:54;;;;;;;4;3.6;;;20.5;99.9;;;;;;;;;
2021/06/12 00:23:02;;;;;;;4;3.6;;;20.5;99.9;;;;;;;;;
2021/06/12 00:23:09;;;;;;;4;3.6;;;20.5;99.9;;;;;;;;;
2021/06/12 00:23:14;;;;;;;4;3.6;;;20.5;99.9;;;;;;;;;
2021/06/12 00:23:30;;;;;;;4.7;3.58;;;20.5;99.9;;;;;;;;;
2021/06/12 00:23:40;;;;;;;4.7;3.58;;;20.5;99.9;;;;;;;;;
2021/06/12 00:23:55;;;;;;;4.7;3.58;;;20.5;99.9;;;;;;;;;
2021/06/12 00:24:02;;;;;;;4.7;3.58;;;20.5;99.9;;;;;;;;;
2021/06/12 00:24:06;;;;;;;4.7;3.58;;;20.5;99.9;;;;;;;;;
2021/06/12 00:24:16;;;;;;;4.22;3.7;;;20.5;99.9;;;;;;;;;
2021/06/12 00:24:31;;;;;;;4.22;3.7;;;20.5;99.9;;;;;;;;;
2021/06/12 00:24:41;;;;;;;4.22;3.7;;;20.5;99.9;;;;;;;;;
2021/06/12 00:24:52;;;;;;;4.22;3.7;;;20.5;99.9;;;;;;;;;
2021/06/12 00:25:01;;;;;;;4.22;3.7;;;20.5;99.9;;;;;;;;;
2021/06/12 00:25:07;;;;;;;4.22;3.7;;;20.5;99.9;;;;;;;;;
2021/06/12 00:25:12;;;;;;;4.22;3.7;;;20.5;99.9;;;;;;;;;
2021/06/12 00:25:28;;;;;;;3.7;3.28;;;20.5;99.9;;;;;;;;;
2021/06/12 00:25:43;;;;;;;3.7;3.28;;;20.5;99.9;;;;;;;;;
2021/06/12 00:25:53;;;;;;;3.7;3.28;;;20.5;99.9;;;;;;;;;
2021/06/12 00:26:02;;;;;;;3.7;3.28;;;20.5;99.9;;;;;;;;;
2021/06/12 00:26:09;;;;;;;3.7;3.28;;;20.5;99.9;;;;;;;;;
2021/06/12 00:26:14;;;;;;;3.7;3.28;;;20.5;99.9;;;;;;;;;
2021/06/12 00:26:29;;;;;;;4.68;3.3;;;20.5;99.9;;;;;;;;;
2021/06/12 00:26:44;;;;;;;4.68;3.3;;;20.5;99.9;;;;;;;;;
2021/06/12 00:26:54;;;;;;;4.68;3.3;;;20.5;99.9;;;;;;;;;
2021/06/12 00:27:02;;;;;;;4.68;3.3;;;20.5;99.9;;;;;;;;;
2021/06/12 00:27:05;;;;;;;4.68;3.3;;;20.5;99.9;;;;;;;;;
2021/06/12 00:27:15;;;;;;;4.68;3.3;;;20.5;99.9;;;;;;;;;
2021/06/12 00:27:25;;;;;;;4.1;2.75;;;20.4;99.9;;;;;;;;;
2021/06/12 00:27:41;;;;;;;4.1;2.75;;;20.4;99.9;;;;;;;;;
2021/06/12 00:27:56;;;;;;;4.1;2.75;;;20.4;99.9;;;;;;;;;
2021/06/12 00:28:02;;;;;;;4.1;2.75;;;20.4;99.9;;;;;;;;;
2021/06/12 00:28:06;;;;;;;4.1;2.75;;;20.4;99.9;;;;;;;;;
2021/06/12 00:28:16;;;;;;;3.72;3.35;;;20.4;99.9;;;;;;;;;
2021/06/12 00:28:27;;;;;;;3.72;3.35;;;20.4;99.9;;;;;;;;;
2021/06/12 00:28:42;;;;;;;3.72;3.35;;;20.4;99.9;;;;;;;;;
2021/06/12 00:28:57;;;;;;;3.72;3.35;;;20.4;99.9;;;;;;;;;
2021/06/12 00:29:02;;;;;;;3.72;3.35;;;20.4;99.9;;;;;;;;;
2021/06/12 00:29:08;;;;;;;3.72;3.35;;;20.4;99.9;;;;;;;;;
2021/06/12 00:29:18;;;;;;;4.63;3.4;;;20.4;99.9;;;;;;;;;
2021/06/12 00:29:28;;;;;;;4.63;3.4;;;20.4;99.9;;;;;;;;;
2021/06/12 00:29:38;;;;;;;4.63;3.4;;;20.4;99.9;;;;;;;;;
2021/06/12 00:29:54;;;;;;;4.63;3.4;;;20.4;99.9;;;;;;;;;
2021/06/12 00:30:02;;;;;;;4.63;3.4;;;20.4;99.9;;;;;;;;;
2021/06/12 00:30:09;;;;;;;4.63;3.4;;;20.4;99.9;;;;;;;;;
2021/06/12 00:30:14;;;;;;;4.63;3.4;;;20.4;99.9;;;;;;;;;
2021/06/12 00:30:30;;;;;;;3.6;3.03;;;20.3;99.9;;;;;;;;;
2021/06/12 00:30:40;;;;;;;3.6;3.03;;;20.3;99.9;;;;;;;;;
2021/06/12 00:30:55;;;;;;;3.6;3.03;;;20.3;99.9;;;;;;;;;
2021/06/12 00:31:02;;;;;;;3.6;3.03;;;20.3;99.9;;;;;;;;;
2021/06/12 00:31:11;;;;;;;3.6;3.03;;;20.3;99.9;;;;;;;;;
2021/06/12 00:31:16;;;;;;;3.6;3.03;;;20.3;99.9;;;;;;;;;
2021/06/12 00:31:31;;;;;;;3.5;3.2;;;20.3;99.9;;;;;;;;;
2021/06/12 00:31:41;;;;;;;3.5;3.2;;;20.3;99.9;;;;;;;;;
2021/06/12 00:31:51;;;;;;;3.5;3.2;;;20.3;99.9;;;;;;;;;
2021/06/12 00:32:01;;;;;;;3.5;3.2;;;20.3;99.9;;;;;;;;;
2021/06/12 00:32:07;;;;;;;3.5;3.2;;;20.3;99.9;;;;;;;;;
2021/06/12 00:32:17;;;;;;;4.47;3.1;;;20.3;99.9;;;;;;;;;
2021/06/12 00:32:27;;;;;;;4.47;3.1;;;20.3;99.9;;;;;;;;;
2021/06/12 00:32:43;;;;;;;4.47;3.1;;;20.3;99.9;;;;;;;;;
2021/06/12 00:32:53;;;;;;;4.47;3.1;;;20.3;99.9;;;;;;;;;
2021/06/12 00:33:02;;;;;;;4.47;3.1;;;20.3;99.9;;;;;;;;;
2021/06/12 00:33:08;;;;;;;4.47;3.1;;;20.3;99.9;;;;;;;;;
2021/06/12 00:33:13;;;;;;;4.47;3.1;;;20.3;99.9;;;;;;;;;
2021/06/12 00:33:29;;;;;;;5.13;3.17;;;20.3;99.9;;;;;;;;;
2021/06/12 00:33:44;;;;;;;5.13;3.17;;;20.3;99.9;;;;;;;;;
2021/06/12 00:33:54;;;;;;;5.13;3.17;;;20.3;99.9;;;;;;;;;
2021/06/12 00:34:02;;;;;;;5.13;3.17;;;20.3;99.9;;;;;;;;;
2021/06/12 00:34:05;;;;;;;5.13;3.17;;;20.3;99.9;;;;;;;;;
2021/06/12 00:34:15;;;;;;;5.13;3.17;;;20.3;99.9;;;;;;;;;
2021/06/12 00:34:30;;;;;;;4.55;3.33;;;20.3;99.9;;;;;;;;;
2021/06/12 00:34:40;;;;;;;4.55;3.33;;;20.3;99.9;;;;;;;;;
2021/06/12 00:34:56;;;;;;;4.55;3.33;;;20.3;99.9;;;;;;;;;
2021/06/12 00:35:02;;;;;;;4.55;3.33;;;20.3;99.9;;;;;;;;;
2021/06/12 00:35:06;;;;;;;4.55;3.33;;;20.3;99.9;;;;;;;;;
2021/06/12 00:35:16;;;;;;;4.55;3.33;;;20.3;99.9;;;;;;;;;
2021/06/12 00:35:26;;;;;;;3.92;2.95;;;20.4;99.9;;;;;;;;;
2021/06/12 00:35:42;;;;;;;3.92;2.95;;;20.4;99.9;;;;;;;;;
2021/06/12 00:35:57;;;;;;;3.92;2.95;;;20.4;99.9;;;;;;;;;
2021/06/12 00:36:02;;;;;;;3.92;2.95;;;20.4;99.9;;;;;;;;;
2021/06/12 00:36:07;;;;;;;3.92;2.95;;;20.4;99.9;;;;;;;;;
2021/06/12 00:36:13;;;;;;;3.92;2.95;;;20.4;99.9;;;;;;;;;
2021/06/12 00:36:28;;;;;;;4.1;3.28;;;20.4;99.9;;;;;;;;;
2021/06/12 00:36:43;;;;;;;4.1;3.28;;;20.4;99.9;;;;;;;;;
2021/06/12 00:36:54;;;;;;;4.1;3.28;;;20.4;99.9;;;;;;;;;
2021/06/12 00:37:01;;;;;;;4.1;3.28;;;20.4;99.9;;;;;;;;;
2021/06/12 00:37:09;;;;;;;4.1;3.28;;;20.4;99.9;;;;;;;;;
2021/06/12 00:37:14;;;;;;;4.1;3.28;;;20.4;99.9;;;;;;;;;
2021/06/12 00:37:29;;;;;;;4.82;3.15;;;20.3;99.9;;;;;;;;;
2021/06/12 00:37:40;;;;;;;4.82;3.15;;;20.3;99.9;;;;;;;;;
2021/06/12 00:37:55;;;;;;;4.82;3.15;;;20.3;99.9;;;;;;;;;
2021/06/12 00:38:02;;;;;;;4.82;3.15;;;20.3;99.9;;;;;;;;;
2021/06/12 00:38:10;;;;;;;4.82;3.15;;;20.3;99.9;;;;;;;;;
2021/06/12 00:38:15;;;;;;;4.82;3.15;;;20.3;99.9;;;;;;;;;
2021/06/12 00:38:26;;;;;;;3.35;2.83;;;20.2;99.9;;;;;;;;;
2021/06/12 00:38:41;;;;;;;3.35;2.83;;;20.2;99.9;;;;;;;;;
2021/06/12 00:38:59;;;;;;;3.35;2.83;;;20.2;99.9;;;;;;;;;
2021/06/12 00:39:02;;;;;;;3.35;2.83;;;20.2;99.9;;;;;;;;;
2021/06/12 00:39:07;;;;;;;3.35;2.83;;;20.2;99.9;;;;;;;;;
2021/06/12 00:39:12;;;;;;;3.35;2.83;;;20.2;99.9;;;;;;;;;
2021/06/12 00:39:27;;;;;;;4.93;2.9;;;20.2;99.9;;;;;;;;;
2021/06/12 00:39:42;;;;;;;4.93;2.9;;;20.2;99.9;;;;;;;;;
2021/06/12 00:39:53;;;;;;;4.93;2.9;;;20.2;99.9;;;;;;;;;
2021/06/12 00:40:02;;;;;;;4.93;2.9;;;20.2;99.9;;;;;;;;;
2021/06/12 00:40:08;;;;;;;4.93;2.9;;;20.2;99.9;;;;;;;;;
2021/06/12 00:40:13;;;;;;;4.93;2.9;;;20.2;99.9;;;;;;;;;
2021/06/12 00:40:29;;;;;;;3.88;3.1;;;20.3;99.9;;;;;;;;;
2021/06/12 00:40:39;;;;;;;3.88;3.1;;;20.3;99.9;;;;;;;;;
2021/06/12 00:40:54;;;;;;;3.88;3.1;;;20.3;99.9;;;;;;;;;
2021/06/12 00:41:02;;;;;;;3.88;3.1;;;20.3;99.9;;;;;;;;;
2021/06/12 00:41:10;;;;;;;3.88;3.1;;;20.3;99.9;;;;;;;;;
2021/06/12 00:41:15;;;;;;;3.88;3.1;;;20.3;99.9;;;;;;;;;
2021/06/12 00:41:25;;;;;;;4;3.45;;;20.3;99.9;;;;;;;;;
2021/06/12 00:41:40;;;;;;;4;3.45;;;20.3;99.9;;;;;;;;;
2021/06/12 00:41:56;;;;;;;4;3.45;;;20.3;99.9;;;;;;;;;
2021/06/12 00:42:01;;;;;;;4;3.45;;;20.3;99.9;;;;;;;;;
2021/06/12 00:42:06;;;;;;;4;3.45;;;20.3;99.9;;;;;;;;;
2021/06/12 00:42:16;;;;;;;4;3.45;;;20.3;99.9;;;;;;;;;
2021/06/12 00:42:26;;;;;;;5.3;3.65;;;20.3;99.9;;;;;;;;;
2021/06/12 00:42:42;;;;;;;5.3;3.65;;;20.3;99.9;;;;;;;;;
2021/06/12 00:42:52;;;;;;;5.3;3.65;;;20.3;99.9;;;;;;;;;
2021/06/12 00:43:02;;;;;;;5.3;3.65;;;20.3;99.9;;;;;;;;;
2021/06/12 00:43:07;;;;;;;5.3;3.65;;;20.3;99.9;;;;;;;;;
2021/06/12 00:43:12;;;;;;;5.3;3.65;;;20.3;99.9;;;;;;;;;
2021/06/12 00:43:28;;;;;;;4.72;3.22;;;20.3;99.9;;;;;;;;;
2021/06/12 00:43:40;;;;;;;4.72;3.22;;;20.3;99.9;;;;;;;;;
2021/06/12 00:43:53;;;;;;;4.72;3.22;;;20.3;99.9;;;;;;;;;
2021/06/12 00:44:02;;;;;;;4.72;3.22;;;20.3;99.9;;;;;;;;;
2021/06/12 00:44:09;;;;;;;4.72;3.22;;;20.3;99.9;;;;;;;;;
2021/06/12 00:44:14;;;;;;;4.72;3.22;;;20.3;99.9;;;;;;;;;
2021/06/12 00:44:29;;;;;;;3.2;2.75;;;20.3;99.9;;;;;;;;;
2021/06/12 00:44:39;;;;;;;3.2;2.75;;;20.3;99.9;;;;;;;;;
2021/06/12 00:44:55;;;;;;;3.2;2.75;;;20.3;99.9;;;;;;;;;
2021/06/12 00:45:02;;;;;;;3.2;2.75;;;20.3;99.9;;;;;;;;;
2021/06/12 00:45:05;;;;;;;3.2;2.75;;;20.3;99.9;;;;;;;;;
2021/06/12 00:45:18;;;;;;;3.2;2.75;;;20.3;99.9;;;;;;;;;
2021/06/12 00:45:26;;;;;;;4.53;3.25;;;20.3;99.9;;;;;;;;;
2021/06/12 00:45:46;;;;;;;4.53;3.25;;;20.3;99.9;;;;;;;;;
2021/06/12 00:45:51;;;;;;;4.53;3.25;;;20.3;99.9;;;;;;;;;
2021/06/12 00:46:02;;;;;;;4.53;3.25;;;20.3;99.9;;;;;;;;;
2021/06/12 00:46:06;;;;;;;4.53;3.25;;;20.3;99.9;;;;;;;;;
2021/06/12 00:46:17;;;;;;;4.53;3.25;;;20.3;99.9;;;;;;;;;
2021/06/12 00:46:27;;;;;;;5.68;3.08;;;20.3;99.9;;;;;;;;;
2021/06/12 00:46:42;;;;;;;5.68;3.08;;;20.3;99.9;;;;;;;;;
2021/06/12 00:46:53;;;;;;;5.68;3.08;;;20.3;99.9;;;;;;;;;
2021/06/12 00:47:01;;;;;;;5.68;3.08;;;20.3;99.9;;;;;;;;;
2021/06/12 00:47:08;;;;;;;5.68;3.08;;;20.3;99.9;;;;;;;;;
2021/06/12 00:47:13;;;;;;;5.68;3.08;;;20.3;99.9;;;;;;;;;
2021/06/12 00:47:34;;;;;;;4.55;3;;;20.3;99.9;;;;;;;;;
2021/06/12 00:47:39;;;;;;;4.55;3;;;20.3;99.9;;;;;;;;;
2021/06/12 00:47:59;;;;;;;4.55;3;;;20.3;99.9;;;;;;;;;
2021/06/12 00:48:02;;;;;;;4.55;3;;;20.3;99.9;;;;;;;;;
2021/06/12 00:48:04;;;;;;;4.55;3;;;20.3;99.9;;;;;;;;;
2021/06/12 00:48:15;;;;;;;4.55;3;;;20.3;99.9;;;;;;;;;
2021/06/12 00:48:30;;;;;;;3.9;2.95;;;20.3;99.9;;;;;;;;;
2021/06/12 00:48:42;;;;;;;3.9;2.95;;;20.3;99.9;;;;;;;;;
2021/06/12 00:48:55;;;;;;;3.9;2.95;;;20.3;99.9;;;;;;;;;
2021/06/12 00:49:03;;;;;;;3.9;2.95;;;20.3;99.9;;;;;;;;;
2021/06/12 00:49:06;;;;;;;3.9;2.95;;;20.3;99.9;;;;;;;;;
2021/06/12 00:49:16;;;;;;;3.9;2.95;;;20.3;99.9;;;;;;;;;
2021/06/12 00:49:26;;;;;;;5.78;3.2;;;20.2;99.9;;;;;;;;;
2021/06/12 00:49:47;;;;;;;5.78;3.2;;;20.2;99.9;;;;;;;;;
2021/06/12 00:49:52;;;;;;;5.78;3.2;;;20.2;99.9;;;;;;;;;
2021/06/12 00:50:02;;;;;;;5.78;3.2;;;20.2;99.9;;;;;;;;;
2021/06/12 00:50:12;;;;;;;5.78;3.2;;;20.2;99.9;;;;;;;;;
2021/06/12 00:50:17;;;;;;;5.78;3.2;;;20.2;99.9;;;;;;;;;
2021/06/12 00:50:28;;;;;;;4.15;3.47;;;20.2;99.9;;;;;;;;;
2021/06/12 00:50:43;;;;;;;4.15;3.47;;;20.2;99.9;;;;;;;;;
2021/06/12 00:50:53;;;;;;;4.15;3.47;;;20.2;99.9;;;;;;;;;
2021/06/12 00:51:02;;;;;;;4.15;3.47;;;20.2;99.9;;;;;;;;;
2021/06/12 00:51:09;;;;;;;4.15;3.47;;;20.2;99.9;;;;;;;;;
2021/06/12 00:51:14;;;;;;;4.15;3.47;;;20.2;99.9;;;;;;;;;
2021/06/12 00:51:29;;;;;;;3.92;3.47;;;20.2;99.9;;;;;;;;;
2021/06/12 00:51:39;;;;;;;3.92;3.47;;;20.2;99.9;;;;;;;;;
2021/06/12 00:52:00;;;;;;;3.92;3.47;;;20.2;99.9;;;;;;;;;
2021/06/12 00:52:01;;;;;;;3.92;3.47;;;20.2;99.9;;;;;;;;;
2021/06/12 00:52:05;;;;;;;3.92;3.47;;;20.2;99.9;;;;;;;;;
2021/06/12 00:52:15;;;;;;;3.92;3.47;;;20.2;99.9;;;;;;;;;
2021/06/12 00:52:31;;;;;;;3.83;3.53;;;20.1;99.9;;;;;;;;;
2021/06/12 00:52:41;;;;;;;3.83;3.53;;;20.1;99.9;;;;;;;;;
2021/06/12 00:52:56;;;;;;;3.83;3.53;;;20.1;99.9;;;;;;;;;
2021/06/12 00:53:02;;;;;;;3.83;3.53;;;20.1;99.9;;;;;;;;;
2021/06/12 00:53:06;;;;;;;3.83;3.53;;;20.1;99.9;;;;;;;;;
2021/06/12 00:53:19;;;;;;;3.83;3.53;;;20.1;99.9;;;;;;;;;
2021/06/12 00:53:37;;;;;;;5.43;3.5;;;20.1;99.9;;;;;;;;;
2021/06/12 00:53:42;;;;;;;5.43;3.5;;;20.1;99.9;;;;;;;;;
2021/06/12 00:53:52;;;;;;;5.43;3.5;;;20.1;99.9;;;;;;;;;
2021/06/12 00:54:01;;;;;;;5.43;3.5;;;20.1;99.9;;;;;;;;;
2021/06/12 00:54:14;;;;;;;5.43;3.5;;;20.1;99.9;;;;;;;;;
2021/06/12 00:54:14;;;;;;;5.43;3.5;;;20.1;99.9;;;;;;;;;
2021/06/12 00:54:28;;;;;;;4.2;3.03;;;20.1;99.9;;;;;;;;;
2021/06/12 00:54:44;;;;;;;4.2;3.03;;;20.1;99.9;;;;;;;;;
2021/06/12 00:54:54;;;;;;;4.2;3.03;;;20.1;99.9;;;;;;;;;
2021/06/12 00:55:02;;;;;;;4.2;3.03;;;20.1;99.9;;;;;;;;;
2021/06/12 00:55:11;;;;;;;4.2;3.03;;;20.1;99.9;;;;;;;;;
2021/06/12 00:55:15;;;;;;;4.2;3.03;;;20.1;99.9;;;;;;;;;
2021/06/12 00:55:30;;;;;;;4.6;3;;;20.1;99.9;;;;;;;;;
2021/06/12 00:55:53;;;;;;;4.6;3;;;20.1;99.9;;;;;;;;;
2021/06/12 00:55:55;;;;;;;4.6;3;;;20.1;99.9;;;;;;;;;
2021/06/12 00:56:02;;;;;;;4.6;3;;;20.1;99.9;;;;;;;;;
2021/06/12 00:56:06;;;;;;;4.6;3;;;20.1;99.9;;;;;;;;;
2021/06/12 00:56:16;;;;;;;4.6;3;;;20.1;99.9;;;;;;;;;
2021/06/12 00:56:26;;;;;;;3.95;3.03;;;20.1;99.9;;;;;;;;;
2021/06/12 00:56:41;;;;;;;3.95;3.03;;;20.1;99.9;;;;;;;;;
2021/06/12 00:56:57;;;;;;;3.95;3.03;;;20.1;99.9;;;;;;;;;
2021/06/12 00:57:02;;;;;;;3.95;3.03;;;20.1;99.9;;;;;;;;;
2021/06/12 00:57:07;;;;;;;3.95;3.03;;;20.1;99.9;;;;;;;;;
2021/06/12 00:57:12;;;;;;;3.95;3.03;;;20.1;99.9;;;;;;;;;
2021/06/12 00:57:27;;;;;;;10.8;3.8;;;20.1;99.9;;;;;;;;;
2021/06/12 00:57:43;;;;;;;10.8;3.8;;;20.1;99.9;;;;;;;;;
2021/06/12 00:58:02;;;;;;;10.8;3.8;;;20.1;99.9;;;;;;;;;
2021/06/12 00:58:03;;;;;;;10.8;3.8;;;20.1;99.9;;;;;;;;;
2021/06/12 00:58:08;;;;;;;10.8;3.8;;;20.1;99.9;;;;;;;;;
2021/06/12 00:58:14;;;;;;;10.8;3.8;;;20.1;99.9;;;;;;;;;
2021/06/12 00:58:29;;;;;;;3.92;3.3;;;20.1;99.9;;;;;;;;;
2021/06/12 00:58:42;;;;;;;3.92;3.3;;;20.1;99.9;;;;;;;;;
2021/06/12 00:58:55;;;;;;;3.92;3.3;;;20.1;99.9;;;;;;;;;
2021/06/12 00:59:02;;;;;;;3.92;3.3;;;20.1;99.9;;;;;;;;;
2021/06/12 00:59:10;;;;;;;3.92;3.3;;;20.1;99.9;;;;;;;;;
2021/06/12 00:59:15;;;;;;;3.92;3.3;;;20.1;99.9;;;;;;;;;
2021/06/12 00:59:25;;;;;;;4.18;3.35;;;20.1;99.9;;;;;;;;;
2021/06/12 00:59:41;;;;;;;4.18;3.35;;;20.1;99.9;;;;;;;;;
2021/06/12 00:59:56;;;;;;;4.18;3.35;;;20.1;99.9;;;;;;;;;
2021/06/12 01:00:02;;;;;;;4.18;3.35;;;20.1;99.9;;;;;;;;;
2021/06/12 01:00:16;;;;;;;4.18;3.35;;;20.1;99.9;;;;;;;;;
2021/06/12 01:00:16;;;;;;;4.18;3.35;;;20.1;99.9;;;;;;;;;
2021/06/12 01:00:27;;;;;;;4.18;3.5;;;20.1;99.9;;;;;;;;;
2021/06/12 01:00:42;;;;;;;4.18;3.5;;;20.1;99.9;;;;;;;;;
2021/06/12 01:00:52;;;;;;;4.18;3.5;;;20.1;99.9;;;;;;;;;
2021/06/12 01:01:02;;;;;;;4.18;3.5;;;20.1;99.9;;;;;;;;;
2021/06/12 01:01:08;;;;;;;4.18;3.5;;;20.1;99.9;;;;;;;;;
2021/06/12 01:01:13;;;;;;;4.18;3.5;;;20.1;99.9;;;;;;;;;
2021/06/12 01:01:28;;;;;;;3.33;2.97;;;20;99.9;;;;;;;;;
2021/06/12 01:01:38;;;;;;;3.33;2.97;;;20;99.9;;;;;;;;;
2021/06/12 01:01:54;;;;;;;3.33;2.97;;;20;99.9;;;;;;;;;
2021/06/12 01:02:01;;;;;;;3.33;2.97;;;20;99.9;;;;;;;;;
2021/06/12 01:02:09;;;;;;;3.33;2.97;;;20;99.9;;;;;;;;;
2021/06/12 01:02:14;;;;;;;3.33;2.97;;;20;99.9;;;;;;;;;
2021/06/12 01:02:29;;;;;;;6.05;3.75;;;20;99.9;;;;;;;;;
2021/06/12 01:02:40;;;;;;;6.05;3.75;;;20;99.9;;;;;;;;;
2021/06/12 01:02:55;;;;;;;6.05;3.75;;;20;99.9;;;;;;;;;
2021/06/12 01:03:02;;;;;;;6.05;3.75;;;20;99.9;;;;;;;;;
2021/06/12 01:03:05;;;;;;;6.05;3.75;;;20;99.9;;;;;;;;;
2021/06/12 01:03:16;;;;;;;6.05;3.75;;;20;99.9;;;;;;;;;
2021/06/12 01:03:26;;;;;;;6.05;3.75;;;20;99.9;;;;;;;;;
2021/06/12 01:03:41;;;;;;;5.13;3.03;;;19.9;99.9;;;;;;;;;
2021/06/12 01:03:51;;;;;;;5.13;3.03;;;19.9;99.9;;;;;;;;;
2021/06/12 01:04:01;;;;;;;5.13;3.03;;;19.9;99.9;;;;;;;;;
2021/06/12 01:04:07;;;;;;;5.13;3.03;;;19.9;99.9;;;;;;;;;
2021/06/12 01:04:12;;;;;;;5.13;3.03;;;19.9;99.9;;;;;;;;;
2021/06/12 01:04:27;;;;;;;3.9;3.5;;;19.9;99.9;;;;;;;;;
2021/06/12 01:04:43;;;;;;;3.9;3.5;;;19.9;99.9;;;;;;;;;
2021/06/12 01:04:53;;;;;;;3.9;3.5;;;19.9;99.9;;;;;;;;;
2021/06/12 01:05:02;;;;;;;3.9;3.5;;;19.9;99.9;;;;;;;;;
2021/06/12 01:05:08;;;;;;;3.9;3.5;;;19.9;99.9;;;;;;;;;
2021/06/12 01:05:13;;;;;;;3.9;3.5;;;19.9;99.9;;;;;;;;;
2021/06/12 01:05:29;;;;;;;6.28;3.35;;;19.8;99.9;;;;;;;;;
2021/06/12 01:05:39;;;;;;;6.28;3.35;;;19.8;99.9;;;;;;;;;
2021/06/12 01:05:54;;;;;;;6.28;3.35;;;19.8;99.9;;;;;;;;;
2021/06/12 01:06:02;;;;;;;6.28;3.35;;;19.8;99.9;;;;;;;;;
2021/06/12 01:06:05;;;;;;;6.28;3.35;;;19.8;99.9;;;;;;;;;
2021/06/12 01:06:15;;;;;;;6.28;3.35;;;19.8;99.9;;;;;;;;;
2021/06/12 01:06:25;;;;;;;6.28;3.35;;;19.8;99.9;;;;;;;;;
2021/06/12 01:06:41;;;;;;;3.28;2.97;;;19.8;99.9;;;;;;;;;
2021/06/12 01:06:56;;;;;;;3.28;2.97;;;19.8;99.9;;;;;;;;;
2021/06/12 01:07:01;;;;;;;3.28;2.97;;;19.8;99.9;;;;;;;;;
2021/06/12 01:07:06;;;;;;;3.28;2.97;;;19.8;99.9;;;;;;;;;
2021/06/12 01:07:16;;;;;;;3.28;2.97;;;19.8;99.9;;;;;;;;;
2021/06/12 01:07:26;;;;;;;3.28;2.97;;;19.8;99.9;;;;;;;;;
2021/06/12 01:07:42;;;;;;;4.93;3.33;;;19.8;99.9;;;;;;;;;
2021/06/12 01:07:52;;;;;;;4.93;3.33;;;19.8;99.9;;;;;;;;;
2021/06/12 01:08:02;;;;;;;4.93;3.33;;;19.8;99.9;;;;;;;;;
2021/06/12 01:08:08;;;;;;;4.93;3.33;;;19.8;99.9;;;;;;;;;
2021/06/12 01:08:13;;;;;;;4.93;3.33;;;19.8;99.9;;;;;;;;;
2021/06/12 01:08:28;;;;;;;3.67;3.28;;;19.9;99.9;;;;;;;;;
2021/06/12 01:08:38;;;;;;;3.67;3.28;;;19.9;99.9;;;;;;;;;
2021/06/12 01:08:54;;;;;;;3.67;3.28;;;19.9;99.9;;;;;;;;;
2021/06/12 01:09:01;;;;;;;3.67;3.28;;;19.9;99.9;;;;;;;;;
2021/06/12 01:09:09;;;;;;;3.67;3.28;;;19.9;99.9;;;;;;;;;
2021/06/12 01:09:14;;;;;;;3.67;3.28;;;19.9;99.9;;;;;;;;;
2021/06/12 01:09:29;;;;;;;6.55;3.5;;;19.9;99.9;;;;;;;;;
2021/06/12 01:09:40;;;;;;;6.55;3.5;;;19.9;99.9;;;;;;;;;
2021/06/12 01:09:55;;;;;;;6.55;3.5;;;19.9;99.9;;;;;;;;;
2021/06/12 01:10:02;;;;;;;6.55;3.5;;;19.9;99.9;;;;;;;;;
2021/06/12 01:10:07;;;;;;;6.55;3.5;;;19.9;99.9;;;;;;;;;
2021/06/12 01:10:15;;;;;;;6.55;3.5;;;19.9;99.9;;;;;;;;;
2021/06/12 01:10:26;;;;;;;6.55;3.5;;;19.9;99.9;;;;;;;;;
2021/06/12 01:10:41;;;;;;;4.63;3.3;;;19.9;99.9;;;;;;;;;
2021/06/12 01:10:51;;;;;;;4.63;3.3;;;19.9;99.9;;;;;;;;;
2021/06/12 01:11:02;;;;;;;4.63;3.3;;;19.9;99.9;;;;;;;;;
2021/06/12 01:11:07;;;;;;;4.63;3.3;;;19.9;99.9;;;;;;;;;
2021/06/12 01:11:12;;;;;;;4.63;3.3;;;19.9;99.9;;;;;;;;;
2021/06/12 01:11:27;;;;;;;4.63;3.3;;;19.9;99.9;;;;;;;;;
2021/06/12 01:11:42;;;;;;;3.88;3.47;;;19.9;99.9;;;;;;;;;
2021/06/12 01:11:53;;;;;;;3.88;3.47;;;19.9;99.9;;;;;;;;;
2021/06/12 01:12:02;;;;;;;3.88;3.47;;;19.9;99.9;;;;;;;;;
2021/06/12 01:12:08;;;;;;;3.88;3.47;;;19.9;99.9;;;;;;;;;
2021/06/12 01:12:13;;;;;;;3.88;3.47;;;19.9;99.9;;;;;;;;;
2021/06/12 01:12:29;;;;;;;3.88;3.47;;;19.9;99.9;;;;;;;;;
2021/06/12 01:12:39;;;;;;;5.43;3.47;;;19.9;99.9;;;;;;;;;
2021/06/12 01:12:54;;;;;;;5.43;3.47;;;19.9;99.9;;;;;;;;;
2021/06/12 01:13:02;;;;;;;5.43;3.47;;;19.9;99.9;;;;;;;;;
2021/06/12 01:13:04;;;;;;;5.43;3.47;;;19.9;99.9;;;;;;;;;
2021/06/12 01:13:15;;;;;;;5.43;3.47;;;19.9;99.9;;;;;;;;;
2021/06/12 01:13:25;;;;;;;5.43;3.47;;;19.9;99.9;;;;;;;;;
2021/06/12 01:13:40;;;;;;;4.7;3.28;;;19.9;99.9;;;;;;;;;
2021/06/12 01:14:01;;;;;;;4.7;3.28;;;19.9;99.9;;;;;;;;;
2021/06/12 01:14:01;;;;;;;4.7;3.28;;;19.9;99.9;;;;;;;;;
2021/06/12 01:14:11;;;;;;;4.7;3.28;;;19.9;99.9;;;;;;;;;
2021/06/12 01:14:16;;;;;;;4.7;3.28;;;19.9;99.9;;;;;;;;;
2021/06/12 01:14:31;;;;;;;4.05;3.55;;;19.9;99.9;;;;;;;;;
2021/06/12 01:14:47;;;;;;;4.05;3.55;;;19.9;99.9;;;;;;;;;
2021/06/12 01:14:57;;;;;;;4.05;3.55;;;19.9;99.9;;;;;;;;;
2021/06/12 01:15:04;;;;;;;4.05;3.55;;;19.9;99.9;;;;;;;;;
2021/06/12 01:15:13;;;;;;;4.05;3.55;;;19.9;99.9;;;;;;;;;
2021/06/12 01:15:23;;;;;;;4.05;3.55;;;19.9;99.9;;;;;;;;;
2021/06/12 01:15:33;;;;;;;4.15;3.28;;;19.9;99.9;;;;;;;;;
2021/06/12 01:15:38;;;;;;;4.15;3.28;;;19.9;99.9;;;;;;;;;
2021/06/12 01:15:58;;;;;;;4.15;3.28;;;19.9;99.9;;;;;;;;;
2021/06/12 01:16:02;;;;;;;4.15;3.28;;;19.9;99.9;;;;;;;;;
2021/06/12 01:16:14;;;;;;;4.15;3.28;;;19.9;99.9;;;;;;;;;
2021/06/12 01:16:19;;;;;;;4.15;3.28;;;19.9;99.9;;;;;;;;;
2021/06/12 01:16:29;;;;;;;4.15;3.28;;;19.9;99.9;;;;;;;;;